createdAt,value
2017-12-13T00:00:34.139Z,91.30
2017-12-13T00:03:02.179Z,91.30
2017-12-13T00:05:30.675Z,91.10
2017-12-13T00:08:01.116Z,91.20
2017-12-13T00:10:29.312Z,91.20
2017-12-13T00:12:57.245Z,91.10
2017-12-13T00:15:25.026Z,91.20
2017-12-13T00:17:52.560Z,91.10
2017-12-13T00:22:54.257Z,91.20
2017-12-13T00:25:21.825Z,91.10
2017-12-13T00:27:49.392Z,91.00
2017-12-13T00:30:16.929Z,90.90
2017-12-13T00:32:44.654Z,90.90
2017-12-13T00:35:12.949Z,90.80
2017-12-13T00:37:40.486Z,90.80
2017-12-13T00:40:08.293Z,90.80
2017-12-13T00:42:36.094Z,90.80
2017-12-13T00:45:03.896Z,90.70
2017-12-13T00:47:34.115Z,90.80
2017-12-13T00:50:02.234Z,90.80
2017-12-13T00:52:30.316Z,90.70
2017-12-13T00:54:58.846Z,90.70
2017-12-13T00:57:26.738Z,90.80
2017-12-13T00:59:55.317Z,90.70
2017-12-13T01:02:23.030Z,90.70
2017-12-13T01:04:50.548Z,90.50
2017-12-13T01:07:18.065Z,90.40
2017-12-13T01:09:45.643Z,90.20
2017-12-13T01:12:13.971Z,90.20
2017-12-13T01:14:41.518Z,90.20
2017-12-13T01:17:09.079Z,90.10
2017-12-13T01:19:36.758Z,90.10
2017-12-13T01:22:04.557Z,90.10
2017-12-13T01:24:33.089Z,90.00
2017-12-13T01:27:01.548Z,90.00
2017-12-13T01:29:30.433Z,89.90
2017-12-13T01:31:59.336Z,89.80
2017-12-13T01:34:28.776Z,89.40
2017-12-13T01:36:56.527Z,89.40
2017-12-13T01:39:24.913Z,89.20
2017-12-13T01:41:52.462Z,89.30
2017-12-13T01:44:19.980Z,89.00
2017-12-13T01:46:48.297Z,89.50
2017-12-13T01:49:16.219Z,88.80
2017-12-13T01:51:44.512Z,88.40
2017-12-13T01:54:12.822Z,87.90
2017-12-13T01:56:40.362Z,88.00
2017-12-13T01:59:08.589Z,87.30
2017-12-13T02:01:36.432Z,87.60
2017-12-13T02:04:04.665Z,87.90
2017-12-13T02:06:32.478Z,87.60
2017-12-13T02:09:01.500Z,87.10
2017-12-13T02:11:31.174Z,86.30
2017-12-13T02:13:59.982Z,86.30
2017-12-13T02:16:28.253Z,86.10
2017-12-13T02:18:57.155Z,85.90
2017-12-13T02:21:25.595Z,86.30
2017-12-13T02:23:53.137Z,86.20
2017-12-13T02:26:21.420Z,86.30
2017-12-13T02:28:49.713Z,86.60
2017-12-13T02:31:17.270Z,86.60
2017-12-13T02:33:44.798Z,87.00
2017-12-13T02:36:12.315Z,86.80
2017-12-13T02:38:40.031Z,86.60
2017-12-13T02:41:08.560Z,86.80
2017-12-13T02:43:36.323Z,86.80
2017-12-13T02:46:04.088Z,86.60
2017-12-13T02:48:32.859Z,86.40
2017-12-13T02:51:01.691Z,86.80
2017-12-13T02:53:31.178Z,86.90
2017-12-13T02:55:59.986Z,86.80
2017-12-13T02:58:28.564Z,87.00
2017-12-13T03:00:56.140Z,86.70
2017-12-13T03:03:24.486Z,87.30
2017-12-13T03:05:52.015Z,87.30
2017-12-13T03:08:20.306Z,86.60
2017-12-13T03:10:47.842Z,86.50
2017-12-13T03:13:16.135Z,87.20
2017-12-13T03:15:44.455Z,87.30
2017-12-13T03:18:11.981Z,87.30
2017-12-13T03:20:39.524Z,87.40
2017-12-13T03:23:08.493Z,88.00
2017-12-13T03:25:36.321Z,87.90
2017-12-13T03:28:04.017Z,88.20
2017-12-13T03:30:32.774Z,88.10
2017-12-13T03:33:01.134Z,88.00
2017-12-13T03:35:31.237Z,87.30
2017-12-13T03:38:00.567Z,87.60
2017-12-13T03:40:30.726Z,87.30
2017-12-13T03:43:00.543Z,87.20
2017-12-13T03:45:29.812Z,87.00
2017-12-13T03:47:58.758Z,87.00
2017-12-13T03:50:28.005Z,87.80
2017-12-13T03:52:57.621Z,88.10
2017-12-13T03:55:25.958Z,88.10
2017-12-13T03:57:54.949Z,88.10
2017-12-13T04:00:22.532Z,88.10
2017-12-13T04:02:50.070Z,88.30
2017-12-13T04:05:18.399Z,89.10
2017-12-13T04:07:45.920Z,89.10
2017-12-13T04:10:13.445Z,88.80
2017-12-13T04:12:41.037Z,88.80
2017-12-13T04:15:08.701Z,89.00
2017-12-13T04:17:36.532Z,89.10
2017-12-13T04:20:04.256Z,89.20
2017-12-13T04:22:32.817Z,89.20
2017-12-13T04:25:01.841Z,89.20
2017-12-13T04:27:30.212Z,89.20
2017-12-13T04:29:58.777Z,89.10
2017-12-13T04:32:28.316Z,89.10
2017-12-13T04:34:56.375Z,89.10
2017-12-13T04:37:25.046Z,88.20
2017-12-13T04:39:52.568Z,88.10
2017-12-13T04:42:20.111Z,88.20
2017-12-13T04:44:47.672Z,88.30
2017-12-13T04:47:15.283Z,88.50
2017-12-13T04:49:43.037Z,87.90
2017-12-13T04:52:11.350Z,88.60
2017-12-13T04:54:38.929Z,88.60
2017-12-13T04:57:06.795Z,88.50
2017-12-13T04:59:35.182Z,88.90
2017-12-13T05:02:02.922Z,88.90
2017-12-13T05:04:31.654Z,88.40
2017-12-13T05:07:00.616Z,88.60
2017-12-13T05:09:28.979Z,88.60
2017-12-13T05:11:56.847Z,88.10
2017-12-13T05:14:25.219Z,87.80
2017-12-13T05:16:53.066Z,87.80
2017-12-13T05:19:21.597Z,87.80
2017-12-13T05:21:49.129Z,87.80
2017-12-13T05:24:16.662Z,88.30
2017-12-13T05:26:44.962Z,88.20
2017-12-13T05:29:12.484Z,88.20
2017-12-13T05:31:40.033Z,88.10
2017-12-13T05:34:08.458Z,88.00
2017-12-13T05:36:36.296Z,88.00
2017-12-13T05:39:04.109Z,87.70
2017-12-13T05:41:32.388Z,87.20
2017-12-13T05:44:01.687Z,87.50
2017-12-13T05:46:30.043Z,86.90
2017-12-13T05:49:00.003Z,86.50
2017-12-13T05:51:29.777Z,86.60
2017-12-13T05:53:58.989Z,86.60
2017-12-13T05:56:26.858Z,86.80
2017-12-13T05:58:54.499Z,86.40
2017-12-13T06:01:22.024Z,86.70
2017-12-13T06:03:49.566Z,86.20
2017-12-13T06:06:17.216Z,85.80
2017-12-13T06:08:44.755Z,85.60
2017-12-13T06:11:12.288Z,85.60
2017-12-13T06:13:40.581Z,85.80
2017-12-13T06:16:08.264Z,85.80
2017-12-13T06:18:36.130Z,85.10
2017-12-13T06:21:03.893Z,85.30
2017-12-13T06:23:32.265Z,84.80
2017-12-13T06:26:00.773Z,84.90
2017-12-13T06:28:28.788Z,84.60
2017-12-13T06:30:57.180Z,84.50
2017-12-13T06:33:24.765Z,84.10
2017-12-13T06:35:52.290Z,84.00
2017-12-13T06:38:20.587Z,84.00
2017-12-13T06:40:48.122Z,83.90
2017-12-13T06:43:16.407Z,84.40
2017-12-13T06:45:43.991Z,84.20
2017-12-13T06:48:11.546Z,84.50
2017-12-13T06:50:39.199Z,84.60
2017-12-13T06:53:07.081Z,84.70
2017-12-13T06:55:34.960Z,84.80
2017-12-13T06:58:02.726Z,85.00
2017-12-13T07:00:31.214Z,85.00
2017-12-13T07:02:59.153Z,85.00
2017-12-13T07:05:26.942Z,85.10
2017-12-13T07:07:54.495Z,85.40
2017-12-13T07:10:22.037Z,85.20
2017-12-13T07:12:49.591Z,85.00
2017-12-13T07:15:17.889Z,84.60
2017-12-13T07:17:45.441Z,84.70
2017-12-13T07:20:12.985Z,84.70
2017-12-13T07:22:41.291Z,84.60
2017-12-13T07:25:08.849Z,84.50
2017-12-13T07:27:36.697Z,84.30
2017-12-13T07:30:04.591Z,84.60
2017-12-13T07:32:32.556Z,84.90
2017-12-13T07:35:00.370Z,85.30
2017-12-13T07:37:29.113Z,84.80
2017-12-13T07:39:56.889Z,84.80
2017-12-13T07:42:24.713Z,84.90
2017-12-13T07:44:52.259Z,84.80
2017-12-13T07:47:20.856Z,84.60
2017-12-13T07:49:48.506Z,84.00
2017-12-13T07:52:16.828Z,84.50
2017-12-13T07:54:44.388Z,84.50
2017-12-13T07:57:11.986Z,84.30
2017-12-13T07:59:39.918Z,83.40
2017-12-13T08:02:09.078Z,83.30
2017-12-13T08:04:37.086Z,83.30
2017-12-13T08:07:04.863Z,83.40
2017-12-13T08:09:33.417Z,83.90
2017-12-13T08:12:01.398Z,83.60
2017-12-13T08:14:29.478Z,83.90
2017-12-13T08:16:57.215Z,84.00
2017-12-13T08:19:25.629Z,84.60
2017-12-13T08:21:53.162Z,84.60
2017-12-13T08:24:20.758Z,84.60
2017-12-13T08:26:48.403Z,84.60
2017-12-13T08:29:15.937Z,84.60
2017-12-13T08:31:43.489Z,85.30
2017-12-13T08:34:11.862Z,85.50
2017-12-13T08:36:40.153Z,86.60
2017-12-13T08:39:07.814Z,86.00
2017-12-13T08:41:35.494Z,85.50
2017-12-13T08:44:03.264Z,85.60
2017-12-13T08:46:31.045Z,87.80
2017-12-13T08:48:59.312Z,89.70
2017-12-13T08:51:27.474Z,90.40
2017-12-13T08:53:55.104Z,90.50
2017-12-13T08:56:23.484Z,90.60
2017-12-13T08:58:52.110Z,90.60
2017-12-13T09:01:19.888Z,90.60
2017-12-13T09:03:47.454Z,91.10
2017-12-13T09:06:14.982Z,90.60
2017-12-13T09:08:42.661Z,90.70
2017-12-13T09:11:10.181Z,90.70
2017-12-13T09:13:38.470Z,91.00
2017-12-13T09:16:06.090Z,91.00
2017-12-13T09:18:33.853Z,90.80
2017-12-13T09:21:02.508Z,91.00
2017-12-13T09:23:30.379Z,91.00
2017-12-13T09:25:58.269Z,91.00
2017-12-13T09:28:25.898Z,91.10
2017-12-13T09:30:53.720Z,90.70
2017-12-13T09:33:21.848Z,90.80
2017-12-13T09:35:50.967Z,91.10
2017-12-13T09:38:19.531Z,91.40
2017-12-13T09:40:47.099Z,91.40
2017-12-13T09:43:14.624Z,91.40
2017-12-13T09:45:42.191Z,91.60
2017-12-13T09:48:10.072Z,92.10
2017-12-13T09:50:37.626Z,91.70
2017-12-13T09:53:05.455Z,91.60
2017-12-13T09:55:34.147Z,91.60
2017-12-13T09:58:02.360Z,91.60
2017-12-13T10:00:31.220Z,91.50
2017-12-13T10:02:59.513Z,91.50
2017-12-13T10:05:27.601Z,91.50
2017-12-13T10:07:55.287Z,91.70
2017-12-13T10:10:23.346Z,91.70
2017-12-13T10:12:50.870Z,91.60
2017-12-13T10:15:18.394Z,91.40
2017-12-13T10:17:45.933Z,91.60
2017-12-13T10:20:13.465Z,91.40
2017-12-13T10:22:41.742Z,91.40
2017-12-13T10:25:09.686Z,91.40
2017-12-13T10:27:40.976Z,91.00
2017-12-13T10:30:09.410Z,91.00
2017-12-13T10:32:40.016Z,90.80
2017-12-13T10:35:07.961Z,90.80
2017-12-13T10:37:37.462Z,90.80
2017-12-13T10:40:05.989Z,90.50
2017-12-13T10:42:34.606Z,90.20
2017-12-13T10:45:02.379Z,90.20
2017-12-13T10:47:30.253Z,90.40
2017-12-13T10:49:59.423Z,90.00
2017-12-13T10:52:27.625Z,90.00
2017-12-13T10:54:55.398Z,90.00
2017-12-13T10:57:23.119Z,90.20
2017-12-13T10:59:50.905Z,89.60
2017-12-13T11:02:18.470Z,89.00
2017-12-13T11:04:46.061Z,89.10
2017-12-13T11:07:13.603Z,89.30
2017-12-13T11:09:41.135Z,89.70
2017-12-13T11:12:08.701Z,89.10
2017-12-13T11:14:36.363Z,89.50
2017-12-13T11:17:04.320Z,88.70
2017-12-13T11:19:31.974Z,89.00
2017-12-13T11:22:00.118Z,89.00
2017-12-13T11:24:27.863Z,88.50
2017-12-13T11:26:56.548Z,87.70
2017-12-13T11:29:24.139Z,87.80
2017-12-13T11:31:52.066Z,88.90
2017-12-13T11:34:20.806Z,88.60
2017-12-13T11:36:48.423Z,88.60
2017-12-13T11:39:15.979Z,88.90
2017-12-13T11:41:43.517Z,88.60
2017-12-13T11:44:11.083Z,89.00
2017-12-13T11:46:39.283Z,88.90
2017-12-13T11:49:08.059Z,88.40
2017-12-13T11:51:35.645Z,88.40
2017-12-13T11:54:05.911Z,87.80
2017-12-13T11:56:33.942Z,87.80
2017-12-13T11:59:02.086Z,87.70
2017-12-13T12:01:29.937Z,87.50
2017-12-13T12:03:57.907Z,87.80
2017-12-13T12:06:26.304Z,87.80
2017-12-13T12:08:55.201Z,87.00
2017-12-13T12:11:22.962Z,87.00
2017-12-13T12:13:50.776Z,87.20
2017-12-13T12:16:18.589Z,87.50
2017-12-13T12:18:46.119Z,87.90
2017-12-13T12:21:14.537Z,89.40
2017-12-13T12:23:43.705Z,88.90
2017-12-13T12:26:11.264Z,88.90
2017-12-13T12:28:39.549Z,89.60
2017-12-13T12:31:07.248Z,89.70
2017-12-13T12:33:35.521Z,90.10
2017-12-13T12:36:03.155Z,90.10
2017-12-13T12:38:31.595Z,90.40
2017-12-13T12:41:00.871Z,91.00
2017-12-13T12:43:28.919Z,91.00
2017-12-13T12:45:57.605Z,90.90
2017-12-13T12:48:25.130Z,90.80
2017-12-13T12:50:53.645Z,91.40
2017-12-13T12:53:21.641Z,91.40
2017-12-13T12:55:50.148Z,91.70
2017-12-13T12:58:17.777Z,91.70
2017-12-13T13:00:45.339Z,91.30
2017-12-13T13:03:12.891Z,91.50
2017-12-13T13:05:40.428Z,91.60
2017-12-13T13:08:08.107Z,92.00
2017-12-13T13:10:36.103Z,91.80
2017-12-13T13:13:04.130Z,91.80
2017-12-13T13:15:33.343Z,92.10
2017-12-13T13:18:01.638Z,92.10
2017-12-13T13:20:29.830Z,92.20
2017-12-13T13:22:57.974Z,92.10
2017-12-13T13:25:25.636Z,91.90
2017-12-13T13:27:53.175Z,92.10
2017-12-13T13:30:20.702Z,91.90
2017-12-13T13:32:48.234Z,92.10
2017-12-13T13:35:15.797Z,92.00
2017-12-13T13:37:43.529Z,92.10
2017-12-13T13:40:11.182Z,92.20
2017-12-13T13:42:39.001Z,91.70
2017-12-13T13:45:07.500Z,91.90
2017-12-13T13:47:36.130Z,91.80
2017-12-13T13:50:04.304Z,91.80
2017-12-13T13:52:32.509Z,91.70
2017-12-13T13:55:00.964Z,91.60
2017-12-13T13:57:28.951Z,91.50
2017-12-13T13:59:58.278Z,91.60
2017-12-13T14:02:25.932Z,91.40
2017-12-13T14:04:54.172Z,91.50
2017-12-13T14:07:21.716Z,91.20
2017-12-13T14:09:49.597Z,91.10
2017-12-13T14:12:17.962Z,91.20
2017-12-13T14:14:45.494Z,91.10
2017-12-13T14:17:13.801Z,91.10
2017-12-13T14:19:41.355Z,91.10
2017-12-13T14:22:11.357Z,91.10
2017-12-13T14:24:39.165Z,91.10
2017-12-13T14:27:07.363Z,91.00
2017-12-13T14:29:34.988Z,90.90
2017-12-13T14:32:03.271Z,91.10
2017-12-13T14:34:31.691Z,91.10
2017-12-13T14:36:59.606Z,91.10
2017-12-13T14:39:29.595Z,91.10
2017-12-13T14:41:58.222Z,91.10
2017-12-13T14:44:25.987Z,90.90
2017-12-13T14:46:55.542Z,91.10
2017-12-13T14:49:23.563Z,91.00
2017-12-13T14:51:51.438Z,90.90
2017-12-13T14:54:19.001Z,91.00
2017-12-13T14:56:46.547Z,91.00
2017-12-13T14:59:14.317Z,90.90
2017-12-13T15:01:42.622Z,91.00
2017-12-13T15:04:10.333Z,91.10
2017-12-13T15:06:38.210Z,91.10
2017-12-13T15:09:06.376Z,91.00
2017-12-13T15:11:35.600Z,91.10
2017-12-13T15:14:03.816Z,91.10
2017-12-13T15:16:32.152Z,91.20
2017-12-13T15:18:59.855Z,91.10
2017-12-13T15:21:29.193Z,90.90
2017-12-13T15:23:57.452Z,91.00
2017-12-13T15:26:25.187Z,91.20
2017-12-13T15:28:52.754Z,91.10
2017-12-13T15:31:20.308Z,91.20
2017-12-13T15:33:47.878Z,91.10
2017-12-13T15:36:15.415Z,91.20
2017-12-13T15:38:43.163Z,91.30
2017-12-13T15:41:10.922Z,91.30
2017-12-13T15:43:38.559Z,91.30
2017-12-13T15:46:06.560Z,91.20
2017-12-13T15:48:34.445Z,91.30
2017-12-13T15:51:02.610Z,91.30
2017-12-13T15:53:30.768Z,91.30
2017-12-13T15:55:59.420Z,91.30
2017-12-13T15:58:28.253Z,91.50
2017-12-13T16:00:55.801Z,91.40
2017-12-13T16:03:23.345Z,91.40
2017-12-13T16:05:50.875Z,91.50
2017-12-13T16:08:19.175Z,91.70
2017-12-13T16:10:47.494Z,91.70
2017-12-13T16:13:15.021Z,91.70
2017-12-13T16:15:42.968Z,91.70
2017-12-13T16:18:11.676Z,92.10
2017-12-13T16:20:40.699Z,92.10
2017-12-13T16:23:08.951Z,92.10
2017-12-13T16:25:37.153Z,92.30
2017-12-13T16:28:04.879Z,92.10
2017-12-13T16:30:33.373Z,92.10
2017-12-13T16:33:01.933Z,92.10
2017-12-13T16:35:29.599Z,92.20
2017-12-13T16:37:58.532Z,92.20
2017-12-13T16:40:26.299Z,92.60
2017-12-13T16:42:54.881Z,92.40
2017-12-13T16:45:22.421Z,92.40
2017-12-13T16:47:49.999Z,92.40
2017-12-13T16:50:17.534Z,92.40
2017-12-13T16:52:45.107Z,92.30
2017-12-13T16:55:13.819Z,92.30
2017-12-13T16:57:41.433Z,92.40
2017-12-13T17:00:09.765Z,92.60
2017-12-13T17:02:37.615Z,92.60
2017-12-13T17:05:05.706Z,92.40
2017-12-13T17:07:33.985Z,92.40
2017-12-13T17:10:02.504Z,92.30
2017-12-13T17:12:31.298Z,92.20
2017-12-13T17:14:59.856Z,92.10
2017-12-13T17:17:29.635Z,92.10
2017-12-13T17:19:59.045Z,92.00
2017-12-13T17:22:31.420Z,92.00
2017-12-13T17:25:03.963Z,91.90
2017-12-13T17:27:36.322Z,92.10
2017-12-13T17:30:04.664Z,92.10
2017-12-13T17:32:33.446Z,92.20
2017-12-13T17:35:03.383Z,92.10
2017-12-13T17:37:32.235Z,92.10
2017-12-13T17:40:01.914Z,92.20
2017-12-13T17:42:30.642Z,92.20
2017-12-13T17:44:58.822Z,92.20
2017-12-13T17:47:29.642Z,92.20
2017-12-13T17:49:59.558Z,91.80
2017-12-13T17:52:30.518Z,91.80
2017-12-13T17:54:59.833Z,92.30
2017-12-13T17:57:28.518Z,92.40
2017-12-13T17:59:59.729Z,92.20
2017-12-13T18:02:28.415Z,92.20
2017-12-13T18:04:59.766Z,92.20
2017-12-13T18:07:27.735Z,92.20
2017-12-13T18:09:59.773Z,92.00
2017-12-13T18:12:30.098Z,92.00
2017-12-13T18:15:00.170Z,92.10
2017-12-13T18:17:34.302Z,92.10
2017-12-13T18:20:06.793Z,92.00
2017-12-13T18:22:38.140Z,92.00
2017-12-13T18:25:07.790Z,92.00
2017-12-13T18:27:37.008Z,92.10
2017-12-13T18:30:04.959Z,92.10
2017-12-13T18:32:33.670Z,91.90
2017-12-13T18:35:02.382Z,92.00
2017-12-13T18:37:30.959Z,92.00
2017-12-13T18:40:00.637Z,92.10
2017-12-13T18:42:29.169Z,92.00
2017-12-13T18:44:59.572Z,91.90
2017-12-13T18:47:28.406Z,91.80
2017-12-13T18:49:59.172Z,91.70
2017-12-13T18:52:29.427Z,91.70
2017-12-13T18:55:02.172Z,91.60
2017-12-13T18:57:32.368Z,91.50
2017-12-13T19:00:03.950Z,91.40
2017-12-13T19:02:32.832Z,91.40
2017-12-13T19:05:01.072Z,91.60
2017-12-13T19:07:29.388Z,91.70
2017-12-13T19:09:59.815Z,91.40
2017-12-13T19:12:29.466Z,91.70
2017-12-13T19:15:00.119Z,91.70
2017-12-13T19:17:31.413Z,92.40
2017-12-13T19:20:01.697Z,93.00
2017-12-13T19:22:32.161Z,92.70
2017-12-13T19:25:03.203Z,93.00
2017-12-13T19:27:34.843Z,93.30
2017-12-13T19:30:03.338Z,93.50
2017-12-13T19:32:31.684Z,93.40
2017-12-13T19:35:02.262Z,93.40
2017-12-13T19:37:32.491Z,93.70
2017-12-13T19:40:02.679Z,93.70
2017-12-13T19:42:32.591Z,93.80
2017-12-13T19:45:01.614Z,93.50
2017-12-13T19:47:32.243Z,93.50
2017-12-13T19:50:03.994Z,93.30
2017-12-13T19:52:33.510Z,93.30
2017-12-13T19:55:03.482Z,93.20
2017-12-13T19:57:32.789Z,93.40
2017-12-13T20:00:02.566Z,93.50
2017-12-13T20:02:31.795Z,93.50
2017-12-13T20:05:02.511Z,93.10
2017-12-13T20:07:33.216Z,92.90
2017-12-13T20:10:03.206Z,93.10
2017-12-13T20:12:33.307Z,93.10
2017-12-13T20:15:19.779Z,93.30
2017-12-13T20:17:47.310Z,93.20
2017-12-13T20:20:14.840Z,93.20
2017-12-13T20:22:42.892Z,93.20
2017-12-13T20:25:10.447Z,93.30
2017-12-13T20:27:38.989Z,93.40
2017-12-13T20:30:07.566Z,93.50
2017-12-13T20:32:35.524Z,93.50
2017-12-13T20:35:03.298Z,93.60
2017-12-13T20:37:31.787Z,93.50
2017-12-13T20:39:59.993Z,93.40
2017-12-13T20:42:29.039Z,93.40
2017-12-13T20:44:57.009Z,93.50
2017-12-13T20:47:25.701Z,93.90
2017-12-13T20:49:53.567Z,93.90
2017-12-13T20:52:21.596Z,94.20
2017-12-13T20:54:49.957Z,94.30
2017-12-13T20:57:17.529Z,94.20
2017-12-13T20:59:45.867Z,93.80
2017-12-13T21:02:13.430Z,93.80
2017-12-13T21:04:41.026Z,93.30
2017-12-13T21:07:09.417Z,93.60
2017-12-13T21:09:37.108Z,93.50
2017-12-13T21:12:04.798Z,93.40
2017-12-13T21:14:32.560Z,93.30
2017-12-13T21:17:00.389Z,93.10
2017-12-13T21:19:28.962Z,93.00
2017-12-13T21:21:57.034Z,93.10
2017-12-13T21:24:24.590Z,93.30
2017-12-13T21:26:52.887Z,93.30
2017-12-13T21:29:20.445Z,93.30
2017-12-13T21:31:47.978Z,93.10
2017-12-13T21:34:15.517Z,93.30
2017-12-13T21:36:43.103Z,93.10
2017-12-13T21:39:10.619Z,93.00
2017-12-13T21:41:38.262Z,93.20
2017-12-13T21:44:06.344Z,92.90
2017-12-13T21:46:33.899Z,92.70
2017-12-13T21:49:01.972Z,92.80
2017-12-13T21:51:30.912Z,92.90
2017-12-13T21:54:00.094Z,92.40
2017-12-13T21:56:27.936Z,92.40
2017-12-13T21:58:56.438Z,92.00
2017-12-13T22:01:23.986Z,92.10
2017-12-13T22:03:51.782Z,92.10
2017-12-13T22:06:20.323Z,91.90
2017-12-13T22:08:47.855Z,91.90
2017-12-13T22:11:16.146Z,91.40
2017-12-13T22:13:43.690Z,91.30
2017-12-13T22:16:11.999Z,91.30
2017-12-13T22:18:39.662Z,91.40
2017-12-13T22:21:07.220Z,91.30
2017-12-13T22:23:34.882Z,91.20
2017-12-13T22:26:02.969Z,91.00
2017-12-13T22:28:30.649Z,91.20
2017-12-13T22:31:00.428Z,90.80
2017-12-13T22:33:28.500Z,90.80
2017-12-13T22:35:57.187Z,90.80
2017-12-13T22:38:24.836Z,90.70
2017-12-13T22:40:52.604Z,90.70
2017-12-13T22:43:20.248Z,90.50
2017-12-13T22:45:48.546Z,90.90
2017-12-13T22:48:16.084Z,90.90
2017-12-13T22:50:43.667Z,90.70
2017-12-13T22:53:11.304Z,90.70
2017-12-13T22:55:39.841Z,91.00
2017-12-13T22:58:07.464Z,91.00
2017-12-13T23:00:46.979Z,90.20
2017-12-13T23:03:15.282Z,89.30
2017-12-13T23:05:42.829Z,89.30
2017-12-13T23:08:10.421Z,89.80
2017-12-13T23:10:38.092Z,90.00
2017-12-13T23:13:05.693Z,90.20
2017-12-13T23:15:33.829Z,90.00
2017-12-13T23:18:01.895Z,89.60
2017-12-13T23:20:29.847Z,89.00
2017-12-13T23:22:57.904Z,88.70
2017-12-13T23:25:25.443Z,88.10
2017-12-13T23:27:53.745Z,89.00
2017-12-13T23:30:21.270Z,88.50
2017-12-13T23:32:48.830Z,89.70
2017-12-13T23:35:16.378Z,90.00
2017-12-13T23:37:43.902Z,89.60
2017-12-13T23:40:11.438Z,90.10
2017-12-13T23:42:39.728Z,90.20
2017-12-13T23:45:07.299Z,90.20
2017-12-13T23:47:34.845Z,90.00
2017-12-13T23:50:02.499Z,89.70
2017-12-13T23:52:30.304Z,90.00
2017-12-13T23:54:59.288Z,90.00
2017-12-13T23:57:27.062Z,90.30
2017-12-13T23:59:55.387Z,90.40
